sensor_id;sensor_type;location;lat;lon;timestamp;pressure;altitude;pressure_sealevel;temperature;humidity
20077;BME280;12348;42.710;23.378;2023-02-16T00:00:59;96425.19;;;-2.87;100.00
20077;BME280;12348;42.710;23.378;2023-02-16T00:03:26;96435.78;;;-3.04;100.00
20077;BME280;12348;42.710;23.378;2023-02-16T00:05:52;96434.38;;;-3.14;100.00
20077;BME280;12348;42.710;23.378;2023-02-16T00:08:19;96434.69;;;-3.18;100.00
20077;BME280;12348;42.710;23.378;2023-02-16T00:10:46;96431.56;;;-3.13;100.00
20077;BME280;12348;42.710;23.378;2023-02-16T00:13:28;96428.81;;;-3.20;100.00
20077;BME280;12348;42.710;23.378;2023-02-16T00:16:17;96427.25;;;-3.06;100.00
20077;BME280;12348;42.710;23.378;2023-02-16T00:18:45;96427.38;;;-2.99;100.00
20077;BME280;12348;42.710;23.378;2023-02-16T00:21:12;96425.69;;;-2.92;100.00
20077;BME280;12348;42.710;23.378;2023-02-16T00:23:39;96423.06;;;-2.92;100.00
20077;BME280;12348;42.710;23.378;2023-02-16T00:26:12;96424.59;;;-2.98;100.00
20077;BME280;12348;42.710;23.378;2023-02-16T00:28:41;96424.44;;;-3.04;100.00
20077;BME280;12348;42.710;23.378;2023-02-16T00:31:15;96427.81;;;-3.19;100.00
20077;BME280;12348;42.710;23.378;2023-02-16T00:33:42;96430.91;;;-3.15;100.00
20077;BME280;12348;42.710;23.378;2023-02-16T00:36:10;96425.00;;;-3.17;100.00
20077;BME280;12348;42.710;23.378;2023-02-16T00:38:37;96422.38;;;-3.25;100.00
20077;BME280;12348;42.710;23.378;2023-02-16T00:41:04;96434.91;;;-3.27;100.00
20077;BME280;12348;42.710;23.378;2023-02-16T00:43:52;96428.84;;;-3.28;100.00
20077;BME280;12348;42.710;23.378;2023-02-16T00:46:20;96427.53;;;-3.32;100.00
20077;BME280;12348;42.710;23.378;2023-02-16T00:48:47;96428.22;;;-3.38;100.00
20077;BME280;12348;42.710;23.378;2023-02-16T00:51:14;96427.53;;;-3.40;100.00
20077;BME280;12348;42.710;23.378;2023-02-16T00:53:40;96429.03;;;-3.37;100.00
20077;BME280;12348;42.710;23.378;2023-02-16T00:56:08;96428.19;;;-3.30;100.00
20077;BME280;12348;42.710;23.378;2023-02-16T00:58:37;96421.44;;;-3.32;100.00
20077;BME280;12348;42.710;23.378;2023-02-16T01:01:10;96429.25;;;-3.47;100.00
20077;BME280;12348;42.710;23.378;2023-02-16T01:03:38;96438.28;;;-3.50;100.00
20077;BME280;12348;42.710;23.378;2023-02-16T01:06:05;96423.84;;;-3.54;100.00
20077;BME280;12348;42.710;23.378;2023-02-16T01:08:49;96429.38;;;-3.41;100.00
20077;BME280;12348;42.710;23.378;2023-02-16T01:11:34;96422.91;;;-3.30;100.00
20077;BME280;12348;42.710;23.378;2023-02-16T01:14:01;96417.16;;;-3.33;100.00
20077;BME280;12348;42.710;23.378;2023-02-16T01:16:35;96416.69;;;-3.37;100.00
20077;BME280;12348;42.710;23.378;2023-02-16T01:19:02;96421.97;;;-3.45;100.00
20077;BME280;12348;42.710;23.378;2023-02-16T01:21:29;96423.81;;;-3.46;100.00
20077;BME280;12348;42.710;23.378;2023-02-16T01:23:56;96414.09;;;-3.45;100.00
20077;BME280;12348;42.710;23.378;2023-02-16T01:26:23;96411.50;;;-3.53;100.00
20077;BME280;12348;42.710;23.378;2023-02-16T01:28:50;96405.22;;;-3.52;100.00
20077;BME280;12348;42.710;23.378;2023-02-16T01:31:17;96396.34;;;-3.59;100.00
20077;BME280;12348;42.710;23.378;2023-02-16T01:33:45;96403.94;;;-3.56;100.00
20077;BME280;12348;42.710;23.378;2023-02-16T01:36:20;96403.94;;;-3.56;100.00
20077;BME280;12348;42.710;23.378;2023-02-16T01:38:48;96403.59;;;-3.53;100.00
20077;BME280;12348;42.710;23.378;2023-02-16T01:41:19;96396.56;;;-3.69;100.00
20077;BME280;12348;42.710;23.378;2023-02-16T01:43:51;96395.28;;;-3.73;100.00
20077;BME280;12348;42.710;23.378;2023-02-16T01:46:24;96391.69;;;-3.80;100.00
20077;BME280;12348;42.710;23.378;2023-02-16T01:48:56;96389.34;;;-3.75;100.00
20077;BME280;12348;42.710;23.378;2023-02-16T01:51:27;96391.16;;;-3.76;100.00
20077;BME280;12348;42.710;23.378;2023-02-16T01:53:59;96394.44;;;-3.66;100.00
20077;BME280;12348;42.710;23.378;2023-02-16T01:56:35;96396.72;;;-3.71;100.00
20077;BME280;12348;42.710;23.378;2023-02-16T01:59:04;96384.41;;;-3.78;100.00
20077;BME280;12348;42.710;23.378;2023-02-16T02:01:38;96385.38;;;-3.71;100.00
20077;BME280;12348;42.710;23.378;2023-02-16T02:04:20;96383.59;;;-3.79;100.00
20077;BME280;12348;42.710;23.378;2023-02-16T02:07:05;96382.63;;;-3.86;100.00
20077;BME280;12348;42.710;23.378;2023-02-16T02:09:38;96387.88;;;-3.86;100.00
20077;BME280;12348;42.710;23.378;2023-02-16T02:12:12;96393.84;;;-3.92;100.00
20077;BME280;12348;42.710;23.378;2023-02-16T02:14:41;96389.25;;;-3.98;100.00
20077;BME280;12348;42.710;23.378;2023-02-16T02:17:11;96390.91;;;-4.13;100.00
20077;BME280;12348;42.710;23.378;2023-02-16T02:19:46;96389.59;;;-4.26;100.00
20077;BME280;12348;42.710;23.378;2023-02-16T02:22:53;96394.19;;;-4.20;100.00
20077;BME280;12348;42.710;23.378;2023-02-16T02:26:12;96392.56;;;-4.29;100.00
20077;BME280;12348;42.710;23.378;2023-02-16T02:28:47;96379.41;;;-4.21;100.00
20077;BME280;12348;42.710;23.378;2023-02-16T02:31:27;96381.88;;;-4.27;100.00
20077;BME280;12348;42.710;23.378;2023-02-16T02:34:03;96383.72;;;-4.36;100.00
20077;BME280;12348;42.710;23.378;2023-02-16T02:36:35;96387.13;;;-4.27;100.00
20077;BME280;12348;42.710;23.378;2023-02-16T02:39:19;96377.78;;;-4.22;100.00
20077;BME280;12348;42.710;23.378;2023-02-16T02:41:55;96379.59;;;-4.14;100.00
20077;BME280;12348;42.710;23.378;2023-02-16T02:44:36;96381.38;;;-4.15;100.00
20077;BME280;12348;42.710;23.378;2023-02-16T02:47:05;96381.69;;;-4.09;100.00
20077;BME280;12348;42.710;23.378;2023-02-16T02:49:32;96384.16;;;-4.08;100.00
20077;BME280;12348;42.710;23.378;2023-02-16T02:51:59;96382.03;;;-4.12;100.00
20077;BME280;12348;42.710;23.378;2023-02-16T02:54:27;96378.94;;;-4.24;100.00
20077;BME280;12348;42.710;23.378;2023-02-16T02:57:16;96385.53;;;-4.36;100.00
20077;BME280;12348;42.710;23.378;2023-02-16T03:00:08;96390.25;;;-3.99;100.00
20077;BME280;12348;42.710;23.378;2023-02-16T03:02:59;96385.44;;;-3.87;100.00
20077;BME280;12348;42.710;23.378;2023-02-16T03:05:29;96388.72;;;-3.94;100.00
20077;BME280;12348;42.710;23.378;2023-02-16T03:08:01;96389.25;;;-4.06;100.00
20077;BME280;12348;42.710;23.378;2023-02-16T03:10:41;96386.25;;;-3.87;100.00
20077;BME280;12348;42.710;23.378;2023-02-16T03:13:29;96380.78;;;-3.77;100.00
20077;BME280;12348;42.710;23.378;2023-02-16T03:16:01;96388.88;;;-3.87;100.00
20077;BME280;12348;42.710;23.378;2023-02-16T03:18:31;96386.19;;;-3.71;100.00
20077;BME280;12348;42.710;23.378;2023-02-16T03:21:17;96391.13;;;-3.68;100.00
20077;BME280;12348;42.710;23.378;2023-02-16T03:24:04;96383.41;;;-3.69;100.00
20077;BME280;12348;42.710;23.378;2023-02-16T03:26:51;96382.63;;;-3.86;100.00
20077;BME280;12348;42.710;23.378;2023-02-16T03:29:36;96390.06;;;-3.98;100.00
20077;BME280;12348;42.710;23.378;2023-02-16T03:32:06;96380.13;;;-3.71;100.00
20077;BME280;12348;42.710;23.378;2023-02-16T03:34:34;96381.44;;;-3.75;100.00
20077;BME280;12348;42.710;23.378;2023-02-16T03:37:02;96383.59;;;-3.79;100.00
20077;BME280;12348;42.710;23.378;2023-02-16T03:39:31;96381.63;;;-3.85;100.00
20077;BME280;12348;42.710;23.378;2023-02-16T03:42:19;96380.50;;;-3.91;100.00
20077;BME280;12348;42.710;23.378;2023-02-16T03:44:47;96381.84;;;-3.95;100.00
20077;BME280;12348;42.710;23.378;2023-02-16T03:47:15;96382.84;;;-3.96;100.00
20077;BME280;12348;42.710;23.378;2023-02-16T03:49:42;96385.97;;;-4.08;100.00
20077;BME280;12348;42.710;23.378;2023-02-16T03:52:09;96382.22;;;-4.39;100.00
20077;BME280;12348;42.710;23.378;2023-02-16T03:54:35;96385.50;;;-4.53;100.00
20077;BME280;12348;42.710;23.378;2023-02-16T03:57:02;96387.16;;;-4.60;100.00
20077;BME280;12348;42.710;23.378;2023-02-16T03:59:29;96395.19;;;-4.70;100.00
20077;BME280;12348;42.710;23.378;2023-02-16T04:01:56;96390.28;;;-4.73;100.00
20077;BME280;12348;42.710;23.378;2023-02-16T04:04:24;96385.66;;;-4.79;100.00
20077;BME280;12348;42.710;23.378;2023-02-16T04:06:51;96387.31;;;-4.78;100.00
20077;BME280;12348;42.710;23.378;2023-02-16T04:09:18;96380.84;;;-5.08;100.00
20077;BME280;12348;42.710;23.378;2023-02-16T04:11:45;96382.94;;;-5.28;100.00
20077;BME280;12348;42.710;23.378;2023-02-16T04:14:29;96377.00;;;-5.38;100.00
20077;BME280;12348;42.710;23.378;2023-02-16T04:16:56;96375.31;;;-5.55;100.00
20077;BME280;12348;42.710;23.378;2023-02-16T04:19:22;96377.53;;;-5.69;100.00
20077;BME280;12348;42.710;23.378;2023-02-16T04:21:51;96377.19;;;-5.82;100.00
20077;BME280;12348;42.710;23.378;2023-02-16T04:24:18;96375.47;;;-5.91;100.00
20077;BME280;12348;42.710;23.378;2023-02-16T04:26:45;96374.13;;;-6.03;100.00
20077;BME280;12348;42.710;23.378;2023-02-16T04:29:13;96373.31;;;-6.04;100.00
20077;BME280;12348;42.710;23.378;2023-02-16T04:31:40;96370.50;;;-6.11;100.00
20077;BME280;12348;42.710;23.378;2023-02-16T04:34:07;96374.53;;;-6.16;100.00
20077;BME280;12348;42.710;23.378;2023-02-16T04:36:34;96374.06;;;-6.20;100.00
20077;BME280;12348;42.710;23.378;2023-02-16T04:39:02;96378.09;;;-6.25;100.00
20077;BME280;12348;42.710;23.378;2023-02-16T04:41:29;96373.31;;;-6.04;100.00
20077;BME280;12348;42.710;23.378;2023-02-16T04:43:56;96374.84;;;-5.85;100.00
20077;BME280;12348;42.710;23.378;2023-02-16T04:46:22;96374.59;;;-5.74;100.00
20077;BME280;12348;42.710;23.378;2023-02-16T04:48:49;96377.31;;;-5.83;100.00
20077;BME280;12348;42.710;23.378;2023-02-16T04:51:16;96375.81;;;-5.52;100.00
20077;BME280;12348;42.710;23.378;2023-02-16T04:53:43;96377.94;;;-5.55;100.00
20077;BME280;12348;42.710;23.378;2023-02-16T04:56:12;96378.91;;;-5.56;100.00
20077;BME280;12348;42.710;23.378;2023-02-16T04:58:39;96378.88;;;-5.65;100.00
20077;BME280;12348;42.710;23.378;2023-02-16T05:01:05;96380.69;;;-5.57;100.00
20077;BME280;12348;42.710;23.378;2023-02-16T05:03:32;96382.38;;;-5.56;100.00
20077;BME280;12348;42.710;23.378;2023-02-16T05:05:59;96388.47;;;-5.47;100.00
20077;BME280;12348;42.710;23.378;2023-02-16T05:08:26;96392.44;;;-5.35;100.00
20077;BME280;12348;42.710;23.378;2023-02-16T05:10:53;96380.81;;;-5.32;100.00
20077;BME280;12348;42.710;23.378;2023-02-16T05:13:35;96391.63;;;-5.27;100.00
20077;BME280;12348;42.710;23.378;2023-02-16T05:16:19;96388.56;;;-5.15;100.00
20077;BME280;12348;42.710;23.378;2023-02-16T05:18:47;96396.91;;;-5.19;100.00
20077;BME280;12348;42.710;23.378;2023-02-16T05:21:14;96384.28;;;-5.16;100.00
20077;BME280;12348;42.710;23.378;2023-02-16T05:23:56;96400.72;;;-5.05;100.00
20077;BME280;12348;42.710;23.378;2023-02-16T05:26:23;96390.38;;;-5.07;100.00
20077;BME280;12348;42.710;23.378;2023-02-16T05:28:51;96388.75;;;-5.00;100.00
20077;BME280;12348;42.710;23.378;2023-02-16T05:31:20;96402.41;;;-4.88;100.00
20077;BME280;12348;42.710;23.378;2023-02-16T05:33:49;96402.59;;;-4.57;100.00
20077;BME280;12348;42.710;23.378;2023-02-16T05:36:16;96409.81;;;-4.26;100.00
20077;BME280;12348;42.710;23.378;2023-02-16T05:38:43;96407.94;;;-3.85;100.00
20077;BME280;12348;42.710;23.378;2023-02-16T05:41:10;96408.44;;;-3.34;100.00
20077;BME280;12348;42.710;23.378;2023-02-16T05:43:48;96395.81;;;-2.53;100.00
20077;BME280;12348;42.710;23.378;2023-02-16T05:46:16;96391.91;;;-1.67;100.00
20077;BME280;12348;42.710;23.378;2023-02-16T05:48:43;96397.16;;;-1.23;100.00
20077;BME280;12348;42.710;23.378;2023-02-16T05:51:09;96398.03;;;-0.43;100.00
20077;BME280;12348;42.710;23.378;2023-02-16T05:53:36;96404.38;;;0.40;100.00
20077;BME280;12348;42.710;23.378;2023-02-16T05:56:04;96399.22;;;0.60;100.00
20077;BME280;12348;42.710;23.378;2023-02-16T05:58:31;96395.53;;;1.03;100.00
20077;BME280;12348;42.710;23.378;2023-02-16T06:00:57;96397.31;;;0.89;100.00
20077;BME280;12348;42.710;23.378;2023-02-16T06:03:26;96402.00;;;1.35;100.00
20077;BME280;12348;42.710;23.378;2023-02-16T06:05:53;96403.50;;;1.77;100.00
20077;BME280;12348;42.710;23.378;2023-02-16T06:08:20;96404.72;;;1.75;100.00
20077;BME280;12348;42.710;23.378;2023-02-16T06:10:48;96411.06;;;1.87;100.00
20077;BME280;12348;42.710;23.378;2023-02-16T06:13:16;96412.50;;;2.16;100.00
20077;BME280;12348;42.710;23.378;2023-02-16T06:15:43;96420.88;;;2.06;96.64
20077;BME280;12348;42.710;23.378;2023-02-16T06:18:10;96421.69;;;2.40;87.70
20077;BME280;12348;42.710;23.378;2023-02-16T06:20:40;96421.47;;;2.48;85.36
20077;BME280;12348;42.710;23.378;2023-02-16T06:23:09;96427.19;;;2.58;83.30
20077;BME280;12348;42.710;23.378;2023-02-16T06:25:40;96429.38;;;2.88;81.95
20077;BME280;12348;42.710;23.378;2023-02-16T06:28:07;96435.13;;;2.72;82.54
20077;BME280;12348;42.710;23.378;2023-02-16T06:30:35;96437.38;;;2.75;80.68
20077;BME280;12348;42.710;23.378;2023-02-16T06:33:02;96443.56;;;2.42;85.79
20077;BME280;12348;42.710;23.378;2023-02-16T06:35:29;96436.22;;;2.24;85.82
20077;BME280;12348;42.710;23.378;2023-02-16T06:37:58;96436.78;;;1.86;86.34
20077;BME280;12348;42.710;23.378;2023-02-16T06:40:25;96440.88;;;1.89;89.86
20077;BME280;12348;42.710;23.378;2023-02-16T06:42:51;96438.63;;;1.86;89.03
20077;BME280;12348;42.710;23.378;2023-02-16T06:45:18;96439.09;;;2.09;88.88
20077;BME280;12348;42.710;23.378;2023-02-16T06:47:45;96445.00;;;2.38;87.58
20077;BME280;12348;42.710;23.378;2023-02-16T06:50:12;96434.78;;;2.41;86.38
20077;BME280;12348;42.710;23.378;2023-02-16T06:52:39;96438.34;;;3.00;83.22
20077;BME280;12348;42.710;23.378;2023-02-16T06:55:07;96439.47;;;3.69;81.40
20077;BME280;12348;42.710;23.378;2023-02-16T06:57:34;96451.53;;;4.10;78.83
20077;BME280;12348;42.710;23.378;2023-02-16T07:00:02;96440.59;;;3.93;79.92
20077;BME280;12348;42.710;23.378;2023-02-16T07:02:30;96440.66;;;4.11;78.77
20077;BME280;12348;42.710;23.378;2023-02-16T07:04:56;96434.69;;;5.03;74.46
20077;BME280;12348;42.710;23.378;2023-02-16T07:07:23;96432.53;;;5.48;72.98
20077;BME280;12348;42.710;23.378;2023-02-16T07:09:50;96427.44;;;5.77;70.45
20077;BME280;12348;42.710;23.378;2023-02-16T07:12:18;96424.31;;;5.50;71.94
20077;BME280;12348;42.710;23.378;2023-02-16T07:14:45;96425.88;;;6.41;69.01
20077;BME280;12348;42.710;23.378;2023-02-16T07:17:12;96425.63;;;6.31;69.17
20077;BME280;12348;42.710;23.378;2023-02-16T07:19:40;96416.34;;;6.92;68.21
20077;BME280;12348;42.710;23.378;2023-02-16T07:22:06;96409.59;;;7.42;66.66
20077;BME280;12348;42.710;23.378;2023-02-16T07:24:33;96401.72;;;8.71;61.82
20077;BME280;12348;42.710;23.378;2023-02-16T07:27:00;96408.44;;;7.78;64.30
20077;BME280;12348;42.710;23.378;2023-02-16T07:29:30;96406.84;;;8.56;62.40
20077;BME280;12348;42.710;23.378;2023-02-16T07:31:56;96405.66;;;9.68;57.76
20077;BME280;12348;42.710;23.378;2023-02-16T07:34:23;96399.09;;;11.20;57.30
20077;BME280;12348;42.710;23.378;2023-02-16T07:36:50;96407.13;;;9.81;55.22
20077;BME280;12348;42.710;23.378;2023-02-16T07:39:17;96403.97;;;10.38;54.63
20077;BME280;12348;42.710;23.378;2023-02-16T07:41:43;96396.47;;;10.18;55.26
20077;BME280;12348;42.710;23.378;2023-02-16T07:44:10;96397.88;;;10.90;55.10
20077;BME280;12348;42.710;23.378;2023-02-16T07:46:39;96406.34;;;9.15;60.39
20077;BME280;12348;42.710;23.378;2023-02-16T07:49:06;96396.81;;;9.73;57.01
20077;BME280;12348;42.710;23.378;2023-02-16T07:51:32;96392.81;;;11.04;55.43
20077;BME280;12348;42.710;23.378;2023-02-16T07:53:59;96392.94;;;11.25;55.00
20077;BME280;12348;42.710;23.378;2023-02-16T07:56:28;96400.25;;;11.34;52.67
20077;BME280;12348;42.710;23.378;2023-02-16T07:58:56;96396.22;;;11.37;52.61
20077;BME280;12348;42.710;23.378;2023-02-16T08:01:24;96396.22;;;12.61;50.32
20077;BME280;12348;42.710;23.378;2023-02-16T08:03:53;96394.59;;;12.65;50.30
20077;BME280;12348;42.710;23.378;2023-02-16T08:06:20;96394.91;;;13.74;47.54
20077;BME280;12348;42.710;23.378;2023-02-16T08:08:47;96401.94;;;13.70;46.72
20077;BME280;12348;42.710;23.378;2023-02-16T08:11:15;96399.91;;;13.42;47.95
20077;BME280;12348;42.710;23.378;2023-02-16T08:13:45;96397.47;;;13.45;47.18
20077;BME280;12348;42.710;23.378;2023-02-16T08:16:14;96404.47;;;13.56;47.64
20077;BME280;12348;42.710;23.378;2023-02-16T08:18:41;96399.88;;;14.06;46.67
20077;BME280;12348;42.710;23.378;2023-02-16T08:21:11;96401.50;;;13.53;48.25
20077;BME280;12348;42.710;23.378;2023-02-16T08:23:40;96403.13;;;14.03;48.02
20077;BME280;12348;42.710;23.378;2023-02-16T08:26:08;96406.84;;;15.20;44.80
20077;BME280;12348;42.710;23.378;2023-02-16T08:28:36;96407.72;;;14.87;46.14
20077;BME280;12348;42.710;23.378;2023-02-16T08:31:04;96399.69;;;15.30;46.07
20077;BME280;12348;42.710;23.378;2023-02-16T08:33:32;96410.91;;;14.60;46.19
20077;BME280;12348;42.710;23.378;2023-02-16T08:36:00;96398.44;;;14.19;47.77
20077;BME280;12348;42.710;23.378;2023-02-16T08:38:29;96399.13;;;14.74;46.84
20077;BME280;12348;42.710;23.378;2023-02-16T08:40:57;96396.56;;;15.41;46.04
20077;BME280;12348;42.710;23.378;2023-02-16T08:43:24;96389.44;;;15.45;45.13
20077;BME280;12348;42.710;23.378;2023-02-16T08:45:51;96406.88;;;14.86;45.49
20077;BME280;12348;42.710;23.378;2023-02-16T08:48:18;96394.28;;;14.71;46.50
20077;BME280;12348;42.710;23.378;2023-02-16T08:50:46;96391.59;;;15.24;45.40
20077;BME280;12348;42.710;23.378;2023-02-16T08:53:17;96394.41;;;14.56;46.49
20077;BME280;12348;42.710;23.378;2023-02-16T08:55:52;96400.63;;;13.63;48.97
20077;BME280;12348;42.710;23.378;2023-02-16T08:58:20;96394.59;;;13.81;49.39
20077;BME280;12348;42.710;23.378;2023-02-16T09:00:46;96398.41;;;12.74;50.51
20077;BME280;12348;42.710;23.378;2023-02-16T09:03:14;96395.59;;;13.36;49.79
20077;BME280;12348;42.710;23.378;2023-02-16T09:05:52;96392.25;;;14.48;48.65
20077;BME280;12348;42.710;23.378;2023-02-16T09:08:19;96389.69;;;14.72;46.76
20077;BME280;12348;42.710;23.378;2023-02-16T09:10:46;96383.38;;;14.76;46.23
20077;BME280;12348;42.710;23.378;2023-02-16T09:13:14;96385.88;;;13.34;47.66
20077;BME280;12348;42.710;23.378;2023-02-16T09:15:42;96386.28;;;15.14;45.93
20077;BME280;12348;42.710;23.378;2023-02-16T09:18:09;96384.97;;;14.04;47.11
20077;BME280;12348;42.710;23.378;2023-02-16T09:20:38;96390.25;;;13.05;49.43
20077;BME280;12348;42.710;23.378;2023-02-16T09:23:06;96383.50;;;13.82;48.15
20077;BME280;12348;42.710;23.378;2023-02-16T09:25:35;96376.16;;;13.13;49.40
20077;BME280;12348;42.710;23.378;2023-02-16T09:28:04;96377.88;;;14.52;47.87
20077;BME280;12348;42.710;23.378;2023-02-16T09:30:32;96373.00;;;15.37;45.35
20077;BME280;12348;42.710;23.378;2023-02-16T09:33:00;96362.72;;;16.00;43.69
20077;BME280;12348;42.710;23.378;2023-02-16T09:35:27;96360.69;;;16.95;42.26
20077;BME280;12348;42.710;23.378;2023-02-16T09:37:54;96359.09;;;17.63;40.75
20077;BME280;12348;42.710;23.378;2023-02-16T09:40:22;96356.41;;;14.61;44.09
20077;BME280;12348;42.710;23.378;2023-02-16T09:43:00;96361.28;;;15.65;43.85
20077;BME280;12348;42.710;23.378;2023-02-16T09:45:29;96358.34;;;17.03;41.95
20077;BME280;12348;42.710;23.378;2023-02-16T09:48:01;96352.06;;;16.04;42.11
20077;BME280;12348;42.710;23.378;2023-02-16T09:50:31;96348.16;;;15.00;43.80
20077;BME280;12348;42.710;23.378;2023-02-16T09:53:02;96348.22;;;13.43;45.77
20077;BME280;12348;42.710;23.378;2023-02-16T09:55:42;96344.34;;;12.54;50.19
20077;BME280;12348;42.710;23.378;2023-02-16T09:58:16;96343.84;;;12.36;50.53
20077;BME280;12348;42.710;23.378;2023-02-16T10:00:48;96335.66;;;12.88;51.73
20077;BME280;12348;42.710;23.378;2023-02-16T10:03:30;96326.81;;;13.52;50.25
20077;BME280;12348;42.710;23.378;2023-02-16T10:06:14;96322.53;;;15.12;45.15
20077;BME280;12348;42.710;23.378;2023-02-16T10:08:50;96332.09;;;15.76;44.12
20077;BME280;12348;42.710;23.378;2023-02-16T10:11:24;96322.75;;;16.20;43.54
20077;BME280;12348;42.710;23.378;2023-02-16T10:14:21;96318.44;;;15.57;43.39
20077;BME280;12348;42.710;23.378;2023-02-16T10:16:53;96306.34;;;15.49;43.73
20077;BME280;12348;42.710;23.378;2023-02-16T10:19:25;96313.13;;;15.28;44.25
20077;BME280;12348;42.710;23.378;2023-02-16T10:21:58;96304.94;;;15.52;44.02
20077;BME280;12348;42.710;23.378;2023-02-16T10:24:30;96307.53;;;14.71;45.54
20077;BME280;12348;42.710;23.378;2023-02-16T10:27:02;96305.84;;;14.12;46.40
20077;BME280;12348;42.710;23.378;2023-02-16T10:29:32;96305.00;;;14.17;46.53
20077;BME280;12348;42.710;23.378;2023-02-16T10:32:06;96300.06;;;15.30;44.79
20077;BME280;12348;42.710;23.378;2023-02-16T10:34:47;96297.06;;;15.74;42.51
20077;BME280;12348;42.710;23.378;2023-02-16T10:37:24;96292.75;;;15.07;43.95
20077;BME280;12348;42.710;23.378;2023-02-16T10:40:07;96293.88;;;15.06;44.79
20077;BME280;12348;42.710;23.378;2023-02-16T10:42:39;96289.28;;;15.68;43.89
20077;BME280;12348;42.710;23.378;2023-02-16T10:45:19;96286.81;;;14.81;44.41
20077;BME280;12348;42.710;23.378;2023-02-16T10:47:47;96284.31;;;15.32;44.63
20077;BME280;12348;42.710;23.378;2023-02-16T10:50:21;96281.72;;;14.45;43.94
20077;BME280;12348;42.710;23.378;2023-02-16T10:52:51;96288.19;;;13.80;45.87
20077;BME280;12348;42.710;23.378;2023-02-16T10:55:20;96276.47;;;13.56;47.03
20077;BME280;12348;42.710;23.378;2023-02-16T10:57:51;96269.66;;;14.61;44.80
20077;BME280;12348;42.710;23.378;2023-02-16T11:00:25;96257.81;;;15.05;44.36
20077;BME280;12348;42.710;23.378;2023-02-16T11:02:54;96264.84;;;15.68;42.64
20077;BME280;12348;42.710;23.378;2023-02-16T11:05:31;96254.72;;;15.73;43.22
20077;BME280;12348;42.710;23.378;2023-02-16T11:08:01;96252.50;;;15.94;42.02
20077;BME280;12348;42.710;23.378;2023-02-16T11:10:37;96253.25;;;15.19;42.83
20077;BME280;12348;42.710;23.378;2023-02-16T11:13:06;96244.50;;;15.03;43.38
20077;BME280;12348;42.710;23.378;2023-02-16T11:15:35;96242.53;;;13.69;45.36
20077;BME280;12348;42.710;23.378;2023-02-16T11:18:05;96250.28;;;13.86;45.75
20077;BME280;12348;42.710;23.378;2023-02-16T11:20:52;96238.38;;;14.16;45.86
20077;BME280;12348;42.710;23.378;2023-02-16T11:23:22;96243.41;;;14.27;45.27
20077;BME280;12348;42.710;23.378;2023-02-16T11:25:57;96240.69;;;13.15;47.03
20077;BME280;12348;42.710;23.378;2023-02-16T11:28:26;96234.13;;;13.31;46.60
20077;BME280;12348;42.710;23.378;2023-02-16T11:30:59;96228.84;;;13.89;45.47
20077;BME280;12348;42.710;23.378;2023-02-16T11:33:27;96229.09;;;13.53;46.18
20077;BME280;12348;42.710;23.378;2023-02-16T11:35:57;96230.28;;;13.76;46.02
20077;BME280;12348;42.710;23.378;2023-02-16T11:38:28;96224.72;;;14.26;45.30
20077;BME280;12348;42.710;23.378;2023-02-16T11:40:57;96213.59;;;14.81;43.58
20077;BME280;12348;42.710;23.378;2023-02-16T11:43:26;96215.44;;;14.08;44.30
20077;BME280;12348;42.710;23.378;2023-02-16T11:46:00;96210.91;;;12.50;47.17
20077;BME280;12348;42.710;23.378;2023-02-16T11:48:29;96209.59;;;12.42;48.14
20077;BME280;12348;42.710;23.378;2023-02-16T11:51:00;96205.88;;;13.47;46.95
20077;BME280;12348;42.710;23.378;2023-02-16T11:53:29;96214.00;;;13.81;45.33
20077;BME280;12348;42.710;23.378;2023-02-16T11:56:22;96202.25;;;13.62;45.80
20077;BME280;12348;42.710;23.378;2023-02-16T11:59:06;96203.91;;;13.58;45.54
20077;BME280;12348;42.710;23.378;2023-02-16T12:01:56;96190.34;;;13.97;44.81
20077;BME280;12348;42.710;23.378;2023-02-16T12:04:37;96191.06;;;14.32;44.67
20077;BME280;12348;42.710;23.378;2023-02-16T12:07:16;96189.72;;;14.29;44.68
20077;BME280;12348;42.710;23.378;2023-02-16T12:09:53;96181.94;;;14.52;44.05
20077;BME280;12348;42.710;23.378;2023-02-16T12:12:30;96182.16;;;14.79;43.43
20077;BME280;12348;42.710;23.378;2023-02-16T12:15:02;96175.88;;;14.84;43.08
20077;BME280;12348;42.710;23.378;2023-02-16T12:17:46;96175.97;;;14.98;42.52
20077;BME280;12348;42.710;23.378;2023-02-16T12:20:30;96167.28;;;14.77;42.38
20077;BME280;12348;42.710;23.378;2023-02-16T12:23:11;96171.41;;;13.92;43.42
20077;BME280;12348;42.710;23.378;2023-02-16T12:25:48;96165.13;;;14.26;43.71
20077;BME280;12348;42.710;23.378;2023-02-16T12:28:25;96161.66;;;14.49;43.05
20077;BME280;12348;42.710;23.378;2023-02-16T12:31:03;96143.94;;;14.57;42.33
20077;BME280;12348;42.710;23.378;2023-02-16T12:33:40;96154.19;;;14.84;42.80
20077;BME280;12348;42.710;23.378;2023-02-16T12:36:31;96144.72;;;15.00;41.71
20077;BME280;12348;42.710;23.378;2023-02-16T12:39:06;96147.56;;;13.31;44.36
20077;BME280;12348;42.710;23.378;2023-02-16T12:41:42;96140.69;;;13.78;44.24
20077;BME280;12348;42.710;23.378;2023-02-16T12:44:15;96139.47;;;14.18;43.67
20077;BME280;12348;42.710;23.378;2023-02-16T12:46:45;96128.44;;;14.34;42.63
20077;BME280;12348;42.710;23.378;2023-02-16T12:49:15;96121.00;;;14.49;42.73
20077;BME280;12348;42.710;23.378;2023-02-16T12:51:47;96125.34;;;14.69;42.19
20077;BME280;12348;42.710;23.378;2023-02-16T12:54:21;96124.03;;;14.86;42.18
20077;BME280;12348;42.710;23.378;2023-02-16T12:56:53;96123.47;;;14.89;42.29
20077;BME280;12348;42.710;23.378;2023-02-16T12:59:33;96120.84;;;14.60;42.10
20077;BME280;12348;42.710;23.378;2023-02-16T13:02:08;96114.47;;;14.50;42.31
20077;BME280;12348;42.710;23.378;2023-02-16T13:04:39;96111.50;;;14.47;43.53
20077;BME280;12348;42.710;23.378;2023-02-16T13:07:13;96114.84;;;14.63;43.38
20077;BME280;12348;42.710;23.378;2023-02-16T13:09:50;96110.25;;;14.63;43.09